sensor_id;sensor_type;location;lat;lon;timestamp;pressure;altitude;pressure_sealevel;temperature;humidity
37202;BME280;37799;52.390;6.136;2022-08-19T00:00:49;101354.88;;;15.89;100.00
37202;BME280;37799;52.390;6.136;2022-08-19T00:03:15;101352.28;;;15.88;100.00
37202;BME280;37799;52.390;6.136;2022-08-19T00:05:41;101359.34;;;15.86;100.00
37202;BME280;37799;52.390;6.136;2022-08-19T00:08:06;101352.75;;;15.77;100.00
37202;BME280;37799;52.390;6.136;2022-08-19T00:10:32;101358.97;;;15.73;100.00
37202;BME280;37799;52.390;6.136;2022-08-19T00:12:59;101353.22;;;15.65;100.00
37202;BME280;37799;52.390;6.136;2022-08-19T00:15:24;101351.38;;;15.67;100.00
37202;BME280;37799;52.390;6.136;2022-08-19T00:17:49;101356.69;;;15.66;100.00
37202;BME280;37799;52.390;6.136;2022-08-19T00:20:19;101356.75;;;15.64;100.00
37202;BME280;37799;52.390;6.136;2022-08-19T00:22:45;101358.59;;;15.60;100.00
37202;BME280;37799;52.390;6.136;2022-08-19T00:25:11;101357.66;;;15.63;100.00
37202;BME280;37799;52.390;6.136;2022-08-19T00:27:36;101351.56;;;15.62;100.00
37202;BME280;37799;52.390;6.136;2022-08-19T00:30:04;101351.53;;;15.64;100.00
37202;BME280;37799;52.390;6.136;2022-08-19T00:32:30;101352.31;;;15.66;100.00
37202;BME280;37799;52.390;6.136;2022-08-19T00:34:55;101356.69;;;15.66;100.00
37202;BME280;37799;52.390;6.136;2022-08-19T00:37:22;101353.22;;;15.65;100.00
37202;BME280;37799;52.390;6.136;2022-08-19T00:39:49;101356.84;;;15.61;100.00
37202;BME280;37799;52.390;6.136;2022-08-19T00:42:16;101354.56;;;15.52;100.00
37202;BME280;37799;52.390;6.136;2022-08-19T00:44:41;101346.03;;;15.47;100.00
37202;BME280;37799;52.390;6.136;2022-08-19T00:47:08;101334.69;;;15.48;100.00
37202;BME280;37799;52.390;6.136;2022-08-19T00:49:41;101328.03;;;15.41;100.00
37202;BME280;37799;52.390;6.136;2022-08-19T00:52:11;101330.84;;;15.34;100.00
37202;BME280;37799;52.390;6.136;2022-08-19T00:54:38;101335.22;;;15.34;100.00
37202;BME280;37799;52.390;6.136;2022-08-19T00:57:08;101337.88;;;15.32;100.00
37202;BME280;37799;52.390;6.136;2022-08-19T00:59:36;101343.81;;;15.36;100.00
37202;BME280;37799;52.390;6.136;2022-08-19T01:02:04;101341.84;;;15.43;100.00
37202;BME280;37799;52.390;6.136;2022-08-19T01:04:29;101336.22;;;15.53;100.00
37202;BME280;37799;52.390;6.136;2022-08-19T01:06:55;101339.69;;;15.54;100.00
37202;BME280;37799;52.390;6.136;2022-08-19T01:09:21;101346.44;;;15.59;100.00
37202;BME280;37799;52.390;6.136;2022-08-19T01:11:47;101348.09;;;15.62;100.00
37202;BME280;37799;52.390;6.136;2022-08-19T01:14:13;101343.09;;;15.56;100.00
37202;BME280;37799;52.390;6.136;2022-08-19T01:16:39;101350.00;;;15.57;100.00
37202;BME280;37799;52.390;6.136;2022-08-19T01:19:39;101342.09;;;15.60;100.00
37202;BME280;37799;52.390;6.136;2022-08-19T01:22:14;101350.66;;;15.63;100.00
37202;BME280;37799;52.390;6.136;2022-08-19T01:24:41;101350.69;;;15.62;100.00
37202;BME280;37799;52.390;6.136;2022-08-19T01:27:07;101350.19;;;15.52;100.00
37202;BME280;37799;52.390;6.136;2022-08-19T01:29:33;101352.75;;;15.54;100.00
37202;BME280;37799;52.390;6.136;2022-08-19T01:32:01;101344.41;;;15.44;100.00
37202;BME280;37799;52.390;6.136;2022-08-19T01:34:27;101346.28;;;15.41;100.00
37202;BME280;37799;52.390;6.136;2022-08-19T01:36:52;101353.19;;;15.42;100.00
37202;BME280;37799;52.390;6.136;2022-08-19T01:39:21;101353.31;;;15.39;100.00
37202;BME280;37799;52.390;6.136;2022-08-19T01:41:47;101355.34;;;15.30;100.00
37202;BME280;37799;52.390;6.136;2022-08-19T01:44:14;101350.25;;;15.27;100.00
37202;BME280;37799;52.390;6.136;2022-08-19T01:46:39;101356.22;;;15.31;100.00
37202;BME280;37799;52.390;6.136;2022-08-19T01:49:05;101342.66;;;15.21;100.00
37202;BME280;37799;52.390;6.136;2022-08-19T01:51:31;101346.22;;;15.19;100.00
37202;BME280;37799;52.390;6.136;2022-08-19T01:53:57;101339.25;;;15.19;100.00
37202;BME280;37799;52.390;6.136;2022-08-19T01:56:23;101342.66;;;15.21;100.00
37202;BME280;37799;52.390;6.136;2022-08-19T01:59:01;101341.13;;;15.16;100.00
37202;BME280;37799;52.390;6.136;2022-08-19T02:01:27;101343.09;;;15.09;100.00
37202;BME280;37799;52.390;6.136;2022-08-19T02:03:56;101354.69;;;15.02;100.00
37202;BME280;37799;52.390;6.136;2022-08-19T02:06:22;101354.78;;;14.99;100.00
37202;BME280;37799;52.390;6.136;2022-08-19T02:08:47;101354.84;;;14.97;100.00
37202;BME280;37799;52.390;6.136;2022-08-19T02:11:26;101348.66;;;15.00;100.00
37202;BME280;37799;52.390;6.136;2022-08-19T02:13:53;101344.44;;;14.96;100.00
37202;BME280;37799;52.390;6.136;2022-08-19T02:16:19;101353.13;;;14.96;100.00
37202;BME280;37799;52.390;6.136;2022-08-19T02:18:46;101345.41;;;14.93;100.00
37202;BME280;37799;52.390;6.136;2022-08-19T02:21:17;101340.94;;;14.97;100.00
37202;BME280;37799;52.390;6.136;2022-08-19T02:23:43;101345.59;;;14.89;100.00
37202;BME280;37799;52.390;6.136;2022-08-19T02:26:09;101349.25;;;14.83;100.00
37202;BME280;37799;52.390;6.136;2022-08-19T02:28:35;101362.34;;;14.82;100.00
37202;BME280;37799;52.390;6.136;2022-08-19T02:31:02;101361.50;;;14.81;100.00
37202;BME280;37799;52.390;6.136;2022-08-19T02:33:28;101348.41;;;14.83;100.00
37202;BME280;37799;52.390;6.136;2022-08-19T02:35:53;101352.94;;;14.78;100.00
37202;BME280;37799;52.390;6.136;2022-08-19T02:38:19;101347.03;;;14.72;100.00
37202;BME280;37799;52.390;6.136;2022-08-19T02:40:56;101348.16;;;14.65;100.00
37202;BME280;37799;52.390;6.136;2022-08-19T02:43:23;101344.69;;;14.65;100.00
37202;BME280;37799;52.390;6.136;2022-08-19T02:45:49;101338.63;;;14.64;100.00
37202;BME280;37799;52.390;6.136;2022-08-19T02:48:16;101344.69;;;14.65;100.00
37202;BME280;37799;52.390;6.136;2022-08-19T02:50:43;101340.44;;;14.62;100.00
37202;BME280;37799;52.390;6.136;2022-08-19T02:53:08;101349.97;;;14.63;100.00
37202;BME280;37799;52.390;6.136;2022-08-19T02:55:34;101345.78;;;14.59;100.00
37202;BME280;37799;52.390;6.136;2022-08-19T02:57:59;101347.34;;;14.63;100.00
37202;BME280;37799;52.390;6.136;2022-08-19T03:00:25;101338.81;;;14.58;100.00
37202;BME280;37799;52.390;6.136;2022-08-19T03:02:51;101345.22;;;14.50;100.00
37202;BME280;37799;52.390;6.136;2022-08-19T03:05:17;101353.09;;;14.48;100.00
37202;BME280;37799;52.390;6.136;2022-08-19T03:07:42;101350.38;;;14.51;100.00
37202;BME280;37799;52.390;6.136;2022-08-19T03:10:08;101356.59;;;14.47;100.00
37202;BME280;37799;52.390;6.136;2022-08-19T03:12:38;101358.47;;;14.42;100.00
37202;BME280;37799;52.390;6.136;2022-08-19T03:15:07;101367.19;;;14.41;100.00
37202;BME280;37799;52.390;6.136;2022-08-19T03:17:34;101354.28;;;14.38;100.00
37202;BME280;37799;52.390;6.136;2022-08-19T03:20:00;101365.69;;;14.34;100.00
37202;BME280;37799;52.390;6.136;2022-08-19T03:22:25;101357.94;;;14.32;100.00
37202;BME280;37799;52.390;6.136;2022-08-19T03:24:50;101355.47;;;14.28;100.00
37202;BME280;37799;52.390;6.136;2022-08-19T03:27:16;101354.78;;;14.23;100.00
37202;BME280;37799;52.390;6.136;2022-08-19T03:29:42;101353.13;;;14.20;100.00
37202;BME280;37799;52.390;6.136;2022-08-19T03:32:07;101357.50;;;14.20;100.00
37202;BME280;37799;52.390;6.136;2022-08-19T03:34:34;101352.31;;;14.18;100.00
37202;BME280;37799;52.390;6.136;2022-08-19T03:37:05;101354.00;;;14.19;100.00
37202;BME280;37799;52.390;6.136;2022-08-19T03:39:31;101347.81;;;14.23;100.00
37202;BME280;37799;52.390;6.136;2022-08-19T03:41:56;101358.97;;;14.27;100.00
37202;BME280;37799;52.390;6.136;2022-08-19T03:44:23;101353.09;;;14.22;100.00
37202;BME280;37799;52.390;6.136;2022-08-19T03:46:51;101351.47;;;14.17;100.00
37202;BME280;37799;52.390;6.136;2022-08-19T03:49:18;101342.06;;;14.13;100.00
37202;BME280;37799;52.390;6.136;2022-08-19T03:51:44;101351.78;;;14.08;100.00
37202;BME280;37799;52.390;6.136;2022-08-19T03:54:12;101352.69;;;14.07;100.00
37202;BME280;37799;52.390;6.136;2022-08-19T03:56:39;101362.09;;;14.11;100.00
37202;BME280;37799;52.390;6.136;2022-08-19T03:59:08;101352.47;;;14.13;100.00
37202;BME280;37799;52.390;6.136;2022-08-19T04:01:34;101355.00;;;14.15;100.00
37202;BME280;37799;52.390;6.136;2022-08-19T04:04:00;101357.78;;;14.10;100.00
37202;BME280;37799;52.390;6.136;2022-08-19T04:06:31;101350.03;;;14.09;100.00
37202;BME280;37799;52.390;6.136;2022-08-19T04:08:58;101349.13;;;14.10;100.00
37202;BME280;37799;52.390;6.136;2022-08-19T04:11:30;101349.88;;;14.13;100.00
37202;BME280;37799;52.390;6.136;2022-08-19T04:13:56;101349.81;;;14.15;100.00
37202;BME280;37799;52.390;6.136;2022-08-19T04:16:24;101349.81;;;14.15;100.00
37202;BME280;37799;52.390;6.136;2022-08-19T04:18:50;101346.34;;;14.14;100.00
37202;BME280;37799;52.390;6.136;2022-08-19T04:21:21;101347.94;;;14.20;100.00
37202;BME280;37799;52.390;6.136;2022-08-19T04:23:47;101341.53;;;14.29;100.00
37202;BME280;37799;52.390;6.136;2022-08-19T04:26:25;101331.00;;;14.32;100.00
37202;BME280;37799;52.390;6.136;2022-08-19T04:28:51;101332.56;;;14.37;100.00
37202;BME280;37799;52.390;6.136;2022-08-19T04:31:23;101335.13;;;14.39;100.00
37202;BME280;37799;52.390;6.136;2022-08-19T04:33:54;101333.22;;;14.45;100.00
37202;BME280;37799;52.390;6.136;2022-08-19T04:36:24;101332.19;;;14.50;100.00
37202;BME280;37799;52.390;6.136;2022-08-19T04:38:53;101333.72;;;14.55;100.00
37202;BME280;37799;52.390;6.136;2022-08-19T04:41:20;101335.34;;;14.59;100.00
37202;BME280;37799;52.390;6.136;2022-08-19T04:44:04;101330.75;;;14.66;100.00
37202;BME280;37799;52.390;6.136;2022-08-19T04:46:30;101328.09;;;14.67;100.00
37202;BME280;37799;52.390;6.136;2022-08-19T04:48:58;101326.38;;;14.66;100.00
37202;BME280;37799;52.390;6.136;2022-08-19T04:51:23;101322.13;;;14.64;100.00
37202;BME280;37799;52.390;6.136;2022-08-19T04:53:49;101326.28;;;14.69;100.00
37202;BME280;37799;52.390;6.136;2022-08-19T04:56:16;101330.44;;;14.75;100.00
37202;BME280;37799;52.390;6.136;2022-08-19T04:58:43;101326.19;;;14.72;100.00
37202;BME280;37799;52.390;6.136;2022-08-19T05:01:12;101323.47;;;14.75;100.00
37202;BME280;37799;52.390;6.136;2022-08-19T05:03:38;101321.59;;;14.79;100.00
37202;BME280;37799;52.390;6.136;2022-08-19T05:06:12;101325.97;;;14.79;100.00
37202;BME280;37799;52.390;6.136;2022-08-19T05:08:39;101324.25;;;14.78;100.00
37202;BME280;37799;52.390;6.136;2022-08-19T05:13:36;101334.50;;;14.82;100.00
37202;BME280;37799;52.390;6.136;2022-08-19T05:16:02;101345.72;;;14.84;100.00
37202;BME280;37799;52.390;6.136;2022-08-19T05:18:27;101348.41;;;14.83;100.00
37202;BME280;37799;52.390;6.136;2022-08-19T05:21:15;101341.28;;;14.88;100.00
37202;BME280;37799;52.390;6.136;2022-08-19T05:23:59;101346.25;;;14.94;100.00
37202;BME280;37799;52.390;6.136;2022-08-19T05:26:25;101342.66;;;14.98;100.00
37202;BME280;37799;52.390;6.136;2022-08-19T05:28:52;101337.31;;;15.01;100.00
37202;BME280;37799;52.390;6.136;2022-08-19T05:31:17;101332.78;;;15.06;100.00
37202;BME280;37799;52.390;6.136;2022-08-19T05:33:42;101335.06;;;15.15;100.00
37202;BME280;37799;52.390;6.136;2022-08-19T05:36:08;101339.03;;;15.25;100.00
37202;BME280;37799;52.390;6.136;2022-08-19T05:38:34;101342.97;;;15.35;100.00
37202;BME280;37799;52.390;6.136;2022-08-19T05:41:05;101339.31;;;15.41;100.00
37202;BME280;37799;52.390;6.136;2022-08-19T05:43:31;101336.44;;;15.47;100.00
37202;BME280;37799;52.390;6.136;2022-08-19T05:45:56;101331.72;;;15.57;100.00
37202;BME280;37799;52.390;6.136;2022-08-19T05:48:21;101333.25;;;15.64;100.00
37202;BME280;37799;52.390;6.136;2022-08-19T05:50:46;101339.91;;;15.71;100.00
37202;BME280;37799;52.390;6.136;2022-08-19T05:53:15;101340.28;;;15.84;100.00
37202;BME280;37799;52.390;6.136;2022-08-19T05:55:41;101344.16;;;15.96;100.00
37202;BME280;37799;52.390;6.136;2022-08-19T05:58:06;101340.41;;;16.03;100.00
37202;BME280;37799;52.390;6.136;2022-08-19T06:00:36;101340.28;;;16.06;100.00
37202;BME280;37799;52.390;6.136;2022-08-19T06:03:02;101337.03;;;16.21;100.00
37202;BME280;37799;52.390;6.136;2022-08-19T06:05:29;101346.38;;;16.27;100.00
37202;BME280;37799;52.390;6.136;2022-08-19T06:07:55;101352.97;;;16.35;100.00
37202;BME280;37799;52.390;6.136;2022-08-19T06:10:20;101353.63;;;16.40;100.00
37202;BME280;37799;52.390;6.136;2022-08-19T06:12:47;101342.94;;;16.46;100.00
37202;BME280;37799;52.390;6.136;2022-08-19T06:15:13;101342.06;;;16.66;100.00
37202;BME280;37799;52.390;6.136;2022-08-19T06:17:39;101345.41;;;16.90;100.00
37202;BME280;37799;52.390;6.136;2022-08-19T06:20:09;101338.81;;;17.39;100.00
37202;BME280;37799;52.390;6.136;2022-08-19T06:22:41;101347.56;;;17.95;100.00
37202;BME280;37799;52.390;6.136;2022-08-19T06:25:07;101337.56;;;18.55;100.00
37202;BME280;37799;52.390;6.136;2022-08-19T06:27:34;101337.50;;;18.74;100.00
37202;BME280;37799;52.390;6.136;2022-08-19T06:30:00;101335.88;;;18.89;100.00
37202;BME280;37799;52.390;6.136;2022-08-19T06:32:25;101342.63;;;18.93;100.00
37202;BME280;37799;52.390;6.136;2022-08-19T06:34:51;101347.41;;;19.02;100.00
37202;BME280;37799;52.390;6.136;2022-08-19T06:37:16;101349.63;;;19.25;100.00
37202;BME280;37799;52.390;6.136;2022-08-19T06:39:43;101352.72;;;19.65;100.00
37202;BME280;37799;52.390;6.136;2022-08-19T06:42:09;101362.31;;;20.27;100.00
37202;BME280;37799;52.390;6.136;2022-08-19T06:44:37;101350.81;;;20.74;100.00
37202;BME280;37799;52.390;6.136;2022-08-19T06:47:06;101359.75;;;20.86;100.00
37202;BME280;37799;52.390;6.136;2022-08-19T06:49:32;101352.94;;;20.82;100.00
37202;BME280;37799;52.390;6.136;2022-08-19T06:51:57;101361.63;;;20.98;100.00
37202;BME280;37799;52.390;6.136;2022-08-19T06:54:23;101358.41;;;21.07;100.00
37202;BME280;37799;52.390;6.136;2022-08-19T06:56:49;101355.69;;;21.09;100.00
37202;BME280;37799;52.390;6.136;2022-08-19T06:59:21;101352.78;;;21.42;100.00
37202;BME280;37799;52.390;6.136;2022-08-19T07:01:52;101353.59;;;21.84;100.00
37202;BME280;37799;52.390;6.136;2022-08-19T07:04:23;101354.44;;;22.38;100.00
37202;BME280;37799;52.390;6.136;2022-08-19T07:06:49;101358.72;;;22.91;100.00
37202;BME280;37799;52.390;6.136;2022-08-19T07:09:17;101360.34;;;23.31;100.00
37202;BME280;37799;52.390;6.136;2022-08-19T07:11:45;101355.84;;;23.57;100.00
37202;BME280;37799;52.390;6.136;2022-08-19T07:14:11;101358.72;;;23.90;100.00
37202;BME280;37799;52.390;6.136;2022-08-19T07:16:37;101365.03;;;24.00;100.00
37202;BME280;37799;52.390;6.136;2022-08-19T07:19:02;101377.09;;;24.16;100.00
37202;BME280;37799;52.390;6.136;2022-08-19T07:21:27;101375.34;;;24.27;100.00
37202;BME280;37799;52.390;6.136;2022-08-19T07:23:55;101384.72;;;25.02;100.00
37202;BME280;37799;52.390;6.136;2022-08-19T07:26:24;101372.53;;;25.55;100.00
37202;BME280;37799;52.390;6.136;2022-08-19T07:28:50;101383.00;;;25.79;100.00
37202;BME280;37799;52.390;6.136;2022-08-19T07:31:18;101375.22;;;25.87;100.00
37202;BME280;37799;52.390;6.136;2022-08-19T07:33:45;101377.63;;;26.22;100.00
37202;BME280;37799;52.390;6.136;2022-08-19T07:36:15;101381.41;;;26.82;100.00
37202;BME280;37799;52.390;6.136;2022-08-19T07:38:43;101376.97;;;27.13;100.00
37202;BME280;37799;52.390;6.136;2022-08-19T07:41:11;101386.94;;;26.69;100.00
37202;BME280;37799;52.390;6.136;2022-08-19T07:43:38;101388.44;;;26.83;100.00
37202;BME280;37799;52.390;6.136;2022-08-19T07:46:04;101382.44;;;27.12;100.00
37202;BME280;37799;52.390;6.136;2022-08-19T07:48:30;101382.56;;;27.50;100.00
37202;BME280;37799;52.390;6.136;2022-08-19T07:50:59;101395.41;;;27.45;100.00
37202;BME280;37799;52.390;6.136;2022-08-19T07:53:28;101392.28;;;27.71;100.00
37202;BME280;37799;52.390;6.136;2022-08-19T07:55:54;101393.84;;;27.83;99.99
37202;BME280;37799;52.390;6.136;2022-08-19T07:58:21;101396.97;;;28.36;98.08
37202;BME280;37799;52.390;6.136;2022-08-19T08:00:49;101386.72;;;28.03;98.38
37202;BME280;37799;52.390;6.136;2022-08-19T08:03:17;101387.25;;;28.26;98.58
37202;BME280;37799;52.390;6.136;2022-08-19T08:05:43;101395.81;;;28.58;95.28
37202;BME280;37799;52.390;6.136;2022-08-19T08:08:27;101399.94;;;28.99;94.14
37202;BME280;37799;52.390;6.136;2022-08-19T08:11:03;101410.97;;;28.48;93.10
37202;BME280;37799;52.390;6.136;2022-08-19T08:13:28;101413.19;;;28.82;93.36
37202;BME280;37799;52.390;6.136;2022-08-19T08:15:54;101415.41;;;28.96;92.36
37202;BME280;37799;52.390;6.136;2022-08-19T08:18:19;101411.16;;;29.03;90.43
37202;BME280;37799;52.390;6.136;2022-08-19T08:20:45;101414.03;;;28.92;91.04
37202;BME280;37799;52.390;6.136;2022-08-19T08:23:10;101411.94;;;29.23;89.92
37202;BME280;37799;52.390;6.136;2022-08-19T08:25:50;101405.94;;;29.48;89.06
37202;BME280;37799;52.390;6.136;2022-08-19T08:28:17;101408.88;;;29.18;90.68
37202;BME280;37799;52.390;6.136;2022-08-19T08:30:42;101412.75;;;29.33;90.38
37202;BME280;37799;52.390;6.136;2022-08-19T08:33:09;101405.22;;;29.46;88.85
37202;BME280;37799;52.390;6.136;2022-08-19T08:35:35;101410.13;;;29.23;88.26
37202;BME280;37799;52.390;6.136;2022-08-19T08:38:01;101414.22;;;29.18;87.72
37202;BME280;37799;52.390;6.136;2022-08-19T08:40:43;101416.66;;;29.29;85.31
37202;BME280;37799;52.390;6.136;2022-08-19T08:43:39;101413.50;;;29.53;86.35
37202;BME280;37799;52.390;6.136;2022-08-19T08:46:12;101422.41;;;29.71;82.76
37202;BME280;37799;52.390;6.136;2022-08-19T08:49:01;101420.25;;;29.75;81.89
37202;BME280;37799;52.390;6.136;2022-08-19T08:54:06;101426.34;;;30.30;78.17
37202;BME280;37799;52.390;6.136;2022-08-19T08:56:32;101427.22;;;30.03;79.00
37202;BME280;37799;52.390;6.136;2022-08-19T08:59:02;101423.97;;;30.27;77.39
37202;BME280;37799;52.390;6.136;2022-08-19T09:01:32;101422.72;;;30.57;74.16
37202;BME280;37799;52.390;6.136;2022-08-19T09:03:57;101421.41;;;30.79;72.30
37202;BME280;37799;52.390;6.136;2022-08-19T09:06:38;101428.94;;;30.40;73.01
37202;BME280;37799;52.390;6.136;2022-08-19T09:09:43;101415.78;;;30.46;73.19
37202;BME280;37799;52.390;6.136;2022-08-19T09:15:03;101414.28;;;29.63;74.41
37202;BME280;37799;52.390;6.136;2022-08-19T09:17:30;101421.91;;;29.58;77.72
37202;BME280;37799;52.390;6.136;2022-08-19T09:22:43;101425.31;;;30.93;68.04
37202;BME280;37799;52.390;6.136;2022-08-19T09:25:22;101422.50;;;30.50;69.04
37202;BME280;37799;52.390;6.136;2022-08-19T09:27:49;101419.06;;;30.40;70.01
37202;BME280;37799;52.390;6.136;2022-08-19T09:30:20;101420.81;;;30.93;66.52
37202;BME280;37799;52.390;6.136;2022-08-19T09:32:47;101414.63;;;30.67;66.47
37202;BME280;37799;52.390;6.136;2022-08-19T09:35:14;101410.63;;;30.27;68.02
37202;BME280;37799;52.390;6.136;2022-08-19T09:37:40;101411.94;;;30.93;67.05
37202;BME280;37799;52.390;6.136;2022-08-19T09:40:05;101413.06;;;31.50;66.28
37202;BME280;37799;52.390;6.136;2022-08-19T09:42:32;101413.78;;;30.66;65.88
37202;BME280;37799;52.390;6.136;2022-08-19T09:44:58;101421.13;;;30.90;63.95
37202;BME280;37799;52.390;6.136;2022-08-19T09:47:24;101419.84;;;30.50;66.75
37202;BME280;37799;52.390;6.136;2022-08-19T09:49:49;101409.47;;;30.47;67.25
37202;BME280;37799;52.390;6.136;2022-08-19T09:52:15;101410.38;;;29.85;68.03
37202;BME280;37799;52.390;6.136;2022-08-19T09:54:41;101404.13;;;29.49;71.94
37202;BME280;37799;52.390;6.136;2022-08-19T09:57:06;101415.28;;;29.62;69.70
37202;BME280;37799;52.390;6.136;2022-08-19T09:59:32;101414.31;;;30.08;70.50
37202;BME280;37799;52.390;6.136;2022-08-19T10:01:57;101417.47;;;30.47;66.44
37202;BME280;37799;52.390;6.136;2022-08-19T10:04:22;101418.69;;;30.53;66.78
37202;BME280;37799;52.390;6.136;2022-08-19T10:06:49;101413.69;;;30.76;64.35
37202;BME280;37799;52.390;6.136;2022-08-19T10:09:17;101410.34;;;30.74;63.32
37202;BME280;37799;52.390;6.136;2022-08-19T10:11:44;101409.19;;;30.59;63.23
37202;BME280;37799;52.390;6.136;2022-08-19T10:14:14;101407.34;;;30.15;63.34
37202;BME280;37799;52.390;6.136;2022-08-19T10:16:41;101409.44;;;29.76;64.71
37202;BME280;37799;52.390;6.136;2022-08-19T10:19:07;101415.88;;;30.19;65.18
37202;BME280;37799;52.390;6.136;2022-08-19T10:21:34;101419.03;;;30.76;60.74
37202;BME280;37799;52.390;6.136;2022-08-19T10:24:01;101419.81;;;31.54;59.08
37202;BME280;37799;52.390;6.136;2022-08-19T10:26:34;101414.22;;;31.90;56.44
37202;BME280;37799;52.390;6.136;2022-08-19T10:29:01;101422.66;;;32.36;55.16
37202;BME280;37799;52.390;6.136;2022-08-19T10:31:29;101420.94;;;32.75;53.31
37202;BME280;37799;52.390;6.136;2022-08-19T10:33:55;101419.44;;;32.97;52.23
37202;BME280;37799;52.390;6.136;2022-08-19T10:36:26;101411.56;;;32.06;51.59
37202;BME280;37799;52.390;6.136;2022-08-19T10:38:54;101411.91;;;32.11;55.92
37202;BME280;37799;52.390;6.136;2022-08-19T10:41:25;101414.59;;;32.19;53.56
37202;BME280;37799;52.390;6.136;2022-08-19T10:43:51;101417.25;;;31.95;52.00
37202;BME280;37799;52.390;6.136;2022-08-19T10:46:20;101414.63;;;31.19;53.90
37202;BME280;37799;52.390;6.136;2022-08-19T10:48:45;101414.69;;;30.75;57.24
37202;BME280;37799;52.390;6.136;2022-08-19T10:51:11;101407.63;;;30.30;57.72
37202;BME280;37799;52.390;6.136;2022-08-19T10:53:55;101401.72;;;29.91;59.75
37202;BME280;37799;52.390;6.136;2022-08-19T10:56:21;101407.69;;;30.03;58.66
37202;BME280;37799;52.390;6.136;2022-08-19T10:59:06;101402.88;;;30.42;57.26
37202;BME280;37799;52.390;6.136;2022-08-19T11:01:33;101407.28;;;30.69;56.42
37202;BME280;37799;52.390;6.136;2022-08-19T11:04:00;101409.88;;;30.78;54.94
37202;BME280;37799;52.390;6.136;2022-08-19T11:06:26;101409.13;;;30.68;55.05
37202;BME280;37799;52.390;6.136;2022-08-19T11:08:53;101408.00;;;31.31;54.58
37202;BME280;37799;52.390;6.136;2022-08-19T11:11:19;101401.66;;;31.82;53.63
37202;BME280;37799;52.390;6.136;2022-08-19T11:13:45;101400.19;;;32.04;50.38
37202;BME280;37799;52.390;6.136;2022-08-19T11:16:16;101392.28;;;31.36;52.06
37202;BME280;37799;52.390;6.136;2022-08-19T11:18:45;101404.59;;;31.71;52.68
37202;BME280;37799;52.390;6.136;2022-08-19T11:21:21;101403.38;;;31.49;46.75
37202;BME280;37799;52.390;6.136;2022-08-19T11:23:49;101405.00;;;31.84;45.19
37202;BME280;37799;52.390;6.136;2022-08-19T11:26:16;101401.50;;;31.92;44.30
37202;BME280;37799;52.390;6.136;2022-08-19T11:28:42;101402.53;;;32.64;44.06
37202;BME280;37799;52.390;6.136;2022-08-19T11:31:15;101406.34;;;33.33;45.57
37202;BME280;37799;52.390;6.136;2022-08-19T11:33:41;101394.22;;;33.54;43.61
37202;BME280;37799;52.390;6.136;2022-08-19T11:36:07;101394.84;;;33.64;44.16
37202;BME280;37799;52.390;6.136;2022-08-19T11:38:34;101393.09;;;33.01;43.10
37202;BME280;37799;52.390;6.136;2022-08-19T11:41:03;101388.84;;;33.14;44.53
37202;BME280;37799;52.390;6.136;2022-08-19T11:43:30;101390.22;;;33.02;44.46
37202;BME280;37799;52.390;6.136;2022-08-19T11:45:56;101390.75;;;32.90;44.36
37202;BME280;37799;52.390;6.136;2022-08-19T11:48:23;101389.78;;;32.82;43.76
37202;BME280;37799;52.390;6.136;2022-08-19T11:50:49;101391.13;;;32.87;44.97
37202;BME280;37799;52.390;6.136;2022-08-19T11:53:16;101389.31;;;33.18;42.97
37202;BME280;37799;52.390;6.136;2022-08-19T11:55:41;101400.22;;;33.25;43.68
37202;BME280;37799;52.390;6.136;2022-08-19T11:58:07;101390.25;;;33.33;46.74
37202;BME280;37799;52.390;6.136;2022-08-19T12:00:34;101390.41;;;33.01;48.81
37202;BME280;37799;52.390;6.136;2022-08-19T12:03:01;101391.25;;;32.93;49.49
37202;BME280;37799;52.390;6.136;2022-08-19T12:05:26;101382.63;;;33.14;47.36
37202;BME280;37799;52.390;6.136;2022-08-19T12:07:52;101378.84;;;33.31;48.51
37202;BME280;37799;52.390;6.136;2022-08-19T12:10:19;101380.28;;;33.81;47.60
37202;BME280;37799;52.390;6.136;2022-08-19T12:12:44;101379.00;;;33.69;45.43
37202;BME280;37799;52.390;6.136;2022-08-19T12:15:10;101391.09;;;33.42;45.97
37202;BME280;37799;52.390;6.136;2022-08-19T12:17:37;101394.63;;;32.95;46.40
37202;BME280;37799;52.390;6.136;2022-08-19T12:20:04;101390.16;;;32.47;49.00
37202;BME280;37799;52.390;6.136;2022-08-19T12:22:29;101382.50;;;31.61;51.31
37202;BME280;37799;52.390;6.136;2022-08-19T12:24:55;101382.94;;;31.40;51.61
37202;BME280;37799;52.390;6.136;2022-08-19T12:27:20;101382.47;;;31.45;52.01
37202;BME280;37799;52.390;6.136;2022-08-19T12:29:46;101385.94;;;31.79;52.77
37202;BME280;37799;52.390;6.136;2022-08-19T12:32:11;101391.78;;;31.32;49.80
37202;BME280;37799;52.390;6.136;2022-08-19T12:34:37;101375.44;;;31.09;51.62
37202;BME280;37799;52.390;6.136;2022-08-19T12:37:04;101381.19;;;30.63;53.21
37202;BME280;37799;52.390;6.136;2022-08-19T12:39:37;101379.63;;;30.16;55.99
37202;BME280;37799;52.390;6.136;2022-08-19T12:42:04;101371.09;;;30.13;57.77
37202;BME280;37799;52.390;6.136;2022-08-19T12:44:29;101375.25;;;30.33;56.89
37202;BME280;37799;52.390;6.136;2022-08-19T12:46:56;101367.34;;;30.06;56.99
37202;BME280;37799;52.390;6.136;2022-08-19T12:49:22;101364.81;;;29.41;58.30
37202;BME280;37799;52.390;6.136;2022-08-19T12:51:47;101370.63;;;29.27;59.36
37202;BME280;37799;52.390;6.136;2022-08-19T12:54:12;101368.22;;;29.06;60.29
37202;BME280;37799;52.390;6.136;2022-08-19T12:56:38;101371.16;;;29.03;61.90